sensor_id;sensor_type;location;lat;lon;timestamp;temperature;humidity
25328;DHT22;13279;51.300;12.394;2023-02-10T00:01:31;-1.60;99.90
25328;DHT22;13279;51.300;12.394;2023-02-10T00:03:58;-1.60;99.90
25328;DHT22;13279;51.300;12.394;2023-02-10T00:06:27;-1.60;99.90
25328;DHT22;13279;51.300;12.394;2023-02-10T00:08:57;-1.60;99.90
25328;DHT22;13279;51.300;12.394;2023-02-10T00:11:26;-1.60;99.90
25328;DHT22;13279;51.300;12.394;2023-02-10T00:14:07;-1.60;99.90
25328;DHT22;13279;51.300;12.394;2023-02-10T00:16:35;-1.70;99.90
25328;DHT22;13279;51.300;12.394;2023-02-10T00:19:03;-1.70;99.90
25328;DHT22;13279;51.300;12.394;2023-02-10T00:21:32;-1.70;99.90
25328;DHT22;13279;51.300;12.394;2023-02-10T00:24:00;-1.70;99.90
25328;DHT22;13279;51.300;12.394;2023-02-10T00:26:27;-1.70;99.90
25328;DHT22;13279;51.300;12.394;2023-02-10T00:28:55;-1.60;99.90
25328;DHT22;13279;51.300;12.394;2023-02-10T00:31:22;-1.60;99.90
25328;DHT22;13279;51.300;12.394;2023-02-10T00:33:50;-1.60;99.90
25328;DHT22;13279;51.300;12.394;2023-02-10T00:36:18;-1.70;99.90
25328;DHT22;13279;51.300;12.394;2023-02-10T00:38:47;-1.70;99.90
25328;DHT22;13279;51.300;12.394;2023-02-10T00:41:17;-1.70;99.90
25328;DHT22;13279;51.300;12.394;2023-02-10T00:43:46;-1.80;99.90
25328;DHT22;13279;51.300;12.394;2023-02-10T00:46:14;-1.80;99.90
25328;DHT22;13279;51.300;12.394;2023-02-10T00:48:42;-1.80;99.90
25328;DHT22;13279;51.300;12.394;2023-02-10T00:51:11;-1.80;99.90
25328;DHT22;13279;51.300;12.394;2023-02-10T00:53:39;-1.80;99.90
25328;DHT22;13279;51.300;12.394;2023-02-10T00:56:09;-1.80;99.90
25328;DHT22;13279;51.300;12.394;2023-02-10T00:58:37;-1.80;99.90
25328;DHT22;13279;51.300;12.394;2023-02-10T01:01:04;-1.70;99.90
25328;DHT22;13279;51.300;12.394;2023-02-10T01:03:33;-1.70;99.90
25328;DHT22;13279;51.300;12.394;2023-02-10T01:06:00;-1.70;99.90
25328;DHT22;13279;51.300;12.394;2023-02-10T01:08:28;-1.60;99.90
25328;DHT22;13279;51.300;12.394;2023-02-10T01:11:00;-1.50;99.90
25328;DHT22;13279;51.300;12.394;2023-02-10T01:13:29;-1.40;99.90
25328;DHT22;13279;51.300;12.394;2023-02-10T01:16:00;-1.30;99.90
25328;DHT22;13279;51.300;12.394;2023-02-10T01:18:28;-1.30;99.90
25328;DHT22;13279;51.300;12.394;2023-02-10T01:20:57;-1.30;99.90
25328;DHT22;13279;51.300;12.394;2023-02-10T01:23:24;-1.30;99.90
25328;DHT22;13279;51.300;12.394;2023-02-10T01:25:52;-1.20;99.90
25328;DHT22;13279;51.300;12.394;2023-02-10T01:28:19;-1.20;99.90
25328;DHT22;13279;51.300;12.394;2023-02-10T01:30:48;-1.20;99.90
25328;DHT22;13279;51.300;12.394;2023-02-10T01:33:16;-1.10;99.90
25328;DHT22;13279;51.300;12.394;2023-02-10T01:35:44;-1.10;99.90
25328;DHT22;13279;51.300;12.394;2023-02-10T01:38:11;-1.10;99.90
25328;DHT22;13279;51.300;12.394;2023-02-10T01:40:39;-1.00;99.90
25328;DHT22;13279;51.300;12.394;2023-02-10T01:43:12;-1.00;99.90
25328;DHT22;13279;51.300;12.394;2023-02-10T01:45:40;-0.90;99.90
25328;DHT22;13279;51.300;12.394;2023-02-10T01:48:10;-1.00;99.90
25328;DHT22;13279;51.300;12.394;2023-02-10T01:50:41;-0.90;99.90
25328;DHT22;13279;51.300;12.394;2023-02-10T01:53:13;-0.80;99.90
25328;DHT22;13279;51.300;12.394;2023-02-10T01:55:44;-0.90;99.90
25328;DHT22;13279;51.300;12.394;2023-02-10T01:58:14;-0.80;99.90
25328;DHT22;13279;51.300;12.394;2023-02-10T02:00:44;-0.70;99.90
25328;DHT22;13279;51.300;12.394;2023-02-10T02:03:14;-0.70;99.90
25328;DHT22;13279;51.300;12.394;2023-02-10T02:05:43;-0.60;99.90
25328;DHT22;13279;51.300;12.394;2023-02-10T02:08:13;-0.60;99.90
25328;DHT22;13279;51.300;12.394;2023-02-10T02:10:58;-0.50;99.90
25328;DHT22;13279;51.300;12.394;2023-02-10T02:13:48;-0.50;99.90
25328;DHT22;13279;51.300;12.394;2023-02-10T02:16:25;-0.50;99.90
25328;DHT22;13279;51.300;12.394;2023-02-10T02:19:04;-0.50;99.90
25328;DHT22;13279;51.300;12.394;2023-02-10T02:24:45;-0.50;99.90
25328;DHT22;13279;51.300;12.394;2023-02-10T02:27:37;-0.50;99.90
25328;DHT22;13279;51.300;12.394;2023-02-10T02:33:14;-0.40;99.90
25328;DHT22;13279;51.300;12.394;2023-02-10T02:35:50;-0.40;99.90
25328;DHT22;13279;51.300;12.394;2023-02-10T02:38:22;-0.30;99.90
25328;DHT22;13279;51.300;12.394;2023-02-10T02:40:50;-0.30;99.90
25328;DHT22;13279;51.300;12.394;2023-02-10T02:43:18;-0.30;99.90
25328;DHT22;13279;51.300;12.394;2023-02-10T02:45:52;-0.30;99.90
25328;DHT22;13279;51.300;12.394;2023-02-10T02:48:37;-0.30;99.90
25328;DHT22;13279;51.300;12.394;2023-02-10T02:51:14;-0.30;99.90
25328;DHT22;13279;51.300;12.394;2023-02-10T02:53:46;-0.20;99.90
25328;DHT22;13279;51.300;12.394;2023-02-10T02:56:21;-0.30;99.90
25328;DHT22;13279;51.300;12.394;2023-02-10T02:58:54;-0.20;99.90
25328;DHT22;13279;51.300;12.394;2023-02-10T03:01:28;-0.20;99.90
25328;DHT22;13279;51.300;12.394;2023-02-10T03:03:59;-0.20;99.90
25328;DHT22;13279;51.300;12.394;2023-02-10T03:06:26;-0.20;99.90
25328;DHT22;13279;51.300;12.394;2023-02-10T03:08:54;-0.10;99.90
25328;DHT22;13279;51.300;12.394;2023-02-10T03:11:22;-0.10;99.90
25328;DHT22;13279;51.300;12.394;2023-02-10T03:13:49;0.00;99.90
25328;DHT22;13279;51.300;12.394;2023-02-10T03:16:17;0.00;99.90
25328;DHT22;13279;51.300;12.394;2023-02-10T03:18:44;0.10;99.90
25328;DHT22;13279;51.300;12.394;2023-02-10T03:21:13;0.10;99.90
25328;DHT22;13279;51.300;12.394;2023-02-10T03:23:40;0.20;99.90
25328;DHT22;13279;51.300;12.394;2023-02-10T03:26:08;0.20;99.90
25328;DHT22;13279;51.300;12.394;2023-02-10T03:28:35;0.20;99.90
25328;DHT22;13279;51.300;12.394;2023-02-10T03:31:04;0.30;99.90
25328;DHT22;13279;51.300;12.394;2023-02-10T03:37:20;0.40;99.90
25328;DHT22;13279;51.300;12.394;2023-02-10T03:39:50;0.40;99.90
25328;DHT22;13279;51.300;12.394;2023-02-10T03:42:18;0.40;99.90
25328;DHT22;13279;51.300;12.394;2023-02-10T03:44:47;0.50;99.90
25328;DHT22;13279;51.300;12.394;2023-02-10T03:47:14;0.50;99.90
25328;DHT22;13279;51.300;12.394;2023-02-10T03:49:42;0.50;99.90
25328;DHT22;13279;51.300;12.394;2023-02-10T03:52:11;0.50;99.90
25328;DHT22;13279;51.300;12.394;2023-02-10T03:54:40;0.60;99.90
25328;DHT22;13279;51.300;12.394;2023-02-10T03:57:08;0.60;99.90
25328;DHT22;13279;51.300;12.394;2023-02-10T03:59:45;0.60;99.90
25328;DHT22;13279;51.300;12.394;2023-02-10T04:02:12;0.60;99.90
25328;DHT22;13279;51.300;12.394;2023-02-10T04:04:44;0.60;99.90
25328;DHT22;13279;51.300;12.394;2023-02-10T04:07:16;0.70;99.90
25328;DHT22;13279;51.300;12.394;2023-02-10T04:09:56;0.70;99.90
25328;DHT22;13279;51.300;12.394;2023-02-10T04:12:24;0.70;99.90
25328;DHT22;13279;51.300;12.394;2023-02-10T04:14:51;0.70;99.90
25328;DHT22;13279;51.300;12.394;2023-02-10T04:17:19;0.70;99.90
25328;DHT22;13279;51.300;12.394;2023-02-10T04:19:54;0.80;99.90
25328;DHT22;13279;51.300;12.394;2023-02-10T04:22:22;0.80;99.90
25328;DHT22;13279;51.300;12.394;2023-02-10T04:24:51;0.70;99.90
25328;DHT22;13279;51.300;12.394;2023-02-10T04:27:18;0.80;99.90
25328;DHT22;13279;51.300;12.394;2023-02-10T04:29:45;0.70;99.90
25328;DHT22;13279;51.300;12.394;2023-02-10T04:32:13;0.70;99.90
25328;DHT22;13279;51.300;12.394;2023-02-10T04:34:40;0.70;99.90
25328;DHT22;13279;51.300;12.394;2023-02-10T04:37:07;0.70;99.90
25328;DHT22;13279;51.300;12.394;2023-02-10T04:39:35;0.70;99.90
25328;DHT22;13279;51.300;12.394;2023-02-10T04:42:04;0.60;99.90
25328;DHT22;13279;51.300;12.394;2023-02-10T04:44:32;0.60;99.90
25328;DHT22;13279;51.300;12.394;2023-02-10T04:46:59;0.60;99.90
25328;DHT22;13279;51.300;12.394;2023-02-10T04:49:27;0.60;99.90
25328;DHT22;13279;51.300;12.394;2023-02-10T04:51:54;0.60;99.90
25328;DHT22;13279;51.300;12.394;2023-02-10T04:54:23;0.60;99.90
25328;DHT22;13279;51.300;12.394;2023-02-10T04:56:50;0.60;99.90
25328;DHT22;13279;51.300;12.394;2023-02-10T04:59:19;0.60;99.90
25328;DHT22;13279;51.300;12.394;2023-02-10T05:01:47;0.60;99.90
25328;DHT22;13279;51.300;12.394;2023-02-10T05:04:15;0.60;99.90
25328;DHT22;13279;51.300;12.394;2023-02-10T05:06:42;0.60;99.90
25328;DHT22;13279;51.300;12.394;2023-02-10T05:09:10;0.60;99.90
25328;DHT22;13279;51.300;12.394;2023-02-10T05:11:37;0.60;99.90
25328;DHT22;13279;51.300;12.394;2023-02-10T05:14:05;0.60;99.90
25328;DHT22;13279;51.300;12.394;2023-02-10T05:16:37;0.60;99.90
25328;DHT22;13279;51.300;12.394;2023-02-10T05:19:04;0.60;99.90
25328;DHT22;13279;51.300;12.394;2023-02-10T05:21:32;0.60;99.90
25328;DHT22;13279;51.300;12.394;2023-02-10T05:24:00;0.60;99.90
25328;DHT22;13279;51.300;12.394;2023-02-10T05:26:27;0.60;99.90
25328;DHT22;13279;51.300;12.394;2023-02-10T05:28:55;0.60;99.90
25328;DHT22;13279;51.300;12.394;2023-02-10T05:31:23;0.60;99.90
25328;DHT22;13279;51.300;12.394;2023-02-10T05:33:52;0.60;99.90
25328;DHT22;13279;51.300;12.394;2023-02-10T05:36:20;0.70;99.90
25328;DHT22;13279;51.300;12.394;2023-02-10T05:38:48;0.70;99.90
25328;DHT22;13279;51.300;12.394;2023-02-10T05:41:30;0.70;99.90
25328;DHT22;13279;51.300;12.394;2023-02-10T05:43:57;0.70;99.90
25328;DHT22;13279;51.300;12.394;2023-02-10T05:46:25;0.70;99.90
25328;DHT22;13279;51.300;12.394;2023-02-10T05:48:57;0.70;99.90
25328;DHT22;13279;51.300;12.394;2023-02-10T05:51:27;0.70;99.90
25328;DHT22;13279;51.300;12.394;2023-02-10T05:53:56;0.70;99.90
25328;DHT22;13279;51.300;12.394;2023-02-10T05:56:33;0.70;99.90
25328;DHT22;13279;51.300;12.394;2023-02-10T05:59:04;0.80;99.90
25328;DHT22;13279;51.300;12.394;2023-02-10T06:01:50;0.80;99.90
25328;DHT22;13279;51.300;12.394;2023-02-10T06:04:25;0.80;99.90
25328;DHT22;13279;51.300;12.394;2023-02-10T06:06:55;0.80;99.90
25328;DHT22;13279;51.300;12.394;2023-02-10T06:09:24;0.80;99.90
25328;DHT22;13279;51.300;12.394;2023-02-10T06:11:55;0.90;99.90
25328;DHT22;13279;51.300;12.394;2023-02-10T06:14:22;0.90;99.90
25328;DHT22;13279;51.300;12.394;2023-02-10T06:16:51;0.90;99.90
25328;DHT22;13279;51.300;12.394;2023-02-10T06:19:19;0.90;99.90
25328;DHT22;13279;51.300;12.394;2023-02-10T06:21:49;0.90;99.90
25328;DHT22;13279;51.300;12.394;2023-02-10T06:24:21;0.90;99.90
25328;DHT22;13279;51.300;12.394;2023-02-10T06:26:56;0.90;99.90
25328;DHT22;13279;51.300;12.394;2023-02-10T06:32:24;0.90;99.90
25328;DHT22;13279;51.300;12.394;2023-02-10T06:35:13;0.90;99.90
25328;DHT22;13279;51.300;12.394;2023-02-10T06:38:11;1.00;99.90
25328;DHT22;13279;51.300;12.394;2023-02-10T06:40:43;1.10;99.90
25328;DHT22;13279;51.300;12.394;2023-02-10T06:43:11;1.10;99.90
25328;DHT22;13279;51.300;12.394;2023-02-10T06:45:41;1.10;99.90
25328;DHT22;13279;51.300;12.394;2023-02-10T06:48:15;1.10;99.90
25328;DHT22;13279;51.300;12.394;2023-02-10T06:50:47;1.10;99.90
25328;DHT22;13279;51.300;12.394;2023-02-10T06:53:21;1.10;99.90
25328;DHT22;13279;51.300;12.394;2023-02-10T06:55:49;1.10;99.90
25328;DHT22;13279;51.300;12.394;2023-02-10T06:58:17;1.10;99.90
25328;DHT22;13279;51.300;12.394;2023-02-10T07:00:59;1.10;99.90
25328;DHT22;13279;51.300;12.394;2023-02-10T07:03:34;1.20;99.90
25328;DHT22;13279;51.300;12.394;2023-02-10T07:06:02;1.20;99.90
25328;DHT22;13279;51.300;12.394;2023-02-10T07:08:36;1.20;99.90
25328;DHT22;13279;51.300;12.394;2023-02-10T07:11:09;1.30;99.90
25328;DHT22;13279;51.300;12.394;2023-02-10T07:13:37;1.30;99.90
25328;DHT22;13279;51.300;12.394;2023-02-10T07:16:05;1.30;99.90
25328;DHT22;13279;51.300;12.394;2023-02-10T07:18:33;1.30;99.90
25328;DHT22;13279;51.300;12.394;2023-02-10T07:21:00;1.20;99.90
25328;DHT22;13279;51.300;12.394;2023-02-10T07:23:27;1.30;99.90
25328;DHT22;13279;51.300;12.394;2023-02-10T07:26:00;1.30;99.90
25328;DHT22;13279;51.300;12.394;2023-02-10T07:28:29;1.30;99.90
25328;DHT22;13279;51.300;12.394;2023-02-10T07:31:02;1.30;99.90
25328;DHT22;13279;51.300;12.394;2023-02-10T07:33:45;1.30;99.90
25328;DHT22;13279;51.300;12.394;2023-02-10T07:36:15;1.30;99.90
25328;DHT22;13279;51.300;12.394;2023-02-10T07:38:42;1.40;99.90
25328;DHT22;13279;51.300;12.394;2023-02-10T07:41:14;1.40;99.90
25328;DHT22;13279;51.300;12.394;2023-02-10T07:43:44;1.40;99.90
25328;DHT22;13279;51.300;12.394;2023-02-10T07:46:15;1.40;99.90
25328;DHT22;13279;51.300;12.394;2023-02-10T07:48:42;1.40;99.90
25328;DHT22;13279;51.300;12.394;2023-02-10T07:51:10;1.40;99.90
25328;DHT22;13279;51.300;12.394;2023-02-10T07:53:38;1.40;99.90
25328;DHT22;13279;51.300;12.394;2023-02-10T07:56:05;1.50;99.90
25328;DHT22;13279;51.300;12.394;2023-02-10T07:58:35;1.50;99.90
25328;DHT22;13279;51.300;12.394;2023-02-10T08:01:06;1.40;99.90
25328;DHT22;13279;51.300;12.394;2023-02-10T08:03:33;1.40;99.90
25328;DHT22;13279;51.300;12.394;2023-02-10T08:06:01;1.50;99.90
25328;DHT22;13279;51.300;12.394;2023-02-10T08:08:29;1.50;99.90
25328;DHT22;13279;51.300;12.394;2023-02-10T08:10:57;1.50;99.90
25328;DHT22;13279;51.300;12.394;2023-02-10T08:13:25;1.50;99.90
25328;DHT22;13279;51.300;12.394;2023-02-10T08:15:55;1.50;99.90
25328;DHT22;13279;51.300;12.394;2023-02-10T08:18:22;1.60;99.90
25328;DHT22;13279;51.300;12.394;2023-02-10T08:20:50;1.60;99.90
25328;DHT22;13279;51.300;12.394;2023-02-10T08:23:23;1.60;99.90
25328;DHT22;13279;51.300;12.394;2023-02-10T08:26:01;1.70;99.90
25328;DHT22;13279;51.300;12.394;2023-02-10T08:28:29;1.70;99.90
25328;DHT22;13279;51.300;12.394;2023-02-10T08:31:00;1.70;99.90
25328;DHT22;13279;51.300;12.394;2023-02-10T08:33:28;1.80;99.90
25328;DHT22;13279;51.300;12.394;2023-02-10T08:36:03;1.80;99.90
25328;DHT22;13279;51.300;12.394;2023-02-10T08:38:31;1.90;99.90
25328;DHT22;13279;51.300;12.394;2023-02-10T08:41:00;1.90;99.90
25328;DHT22;13279;51.300;12.394;2023-02-10T08:43:31;1.90;99.90
25328;DHT22;13279;51.300;12.394;2023-02-10T08:46:01;1.90;99.90
25328;DHT22;13279;51.300;12.394;2023-02-10T08:48:33;1.90;99.90
25328;DHT22;13279;51.300;12.394;2023-02-10T08:51:04;1.90;99.90
25328;DHT22;13279;51.300;12.394;2023-02-10T08:53:32;2.00;99.90
25328;DHT22;13279;51.300;12.394;2023-02-10T08:56:07;2.00;99.90
25328;DHT22;13279;51.300;12.394;2023-02-10T08:58:38;2.10;99.90
25328;DHT22;13279;51.300;12.394;2023-02-10T09:01:12;2.10;99.90
25328;DHT22;13279;51.300;12.394;2023-02-10T09:03:40;2.20;99.90
25328;DHT22;13279;51.300;12.394;2023-02-10T09:06:19;2.30;99.90
25328;DHT22;13279;51.300;12.394;2023-02-10T09:08:48;2.30;99.90
25328;DHT22;13279;51.300;12.394;2023-02-10T09:11:19;2.40;99.90
25328;DHT22;13279;51.300;12.394;2023-02-10T09:13:52;2.40;99.90
25328;DHT22;13279;51.300;12.394;2023-02-10T09:16:24;2.50;99.90
25328;DHT22;13279;51.300;12.394;2023-02-10T09:18:52;2.60;99.90
25328;DHT22;13279;51.300;12.394;2023-02-10T09:21:19;2.70;99.90
25328;DHT22;13279;51.300;12.394;2023-02-10T09:23:47;2.80;99.90
25328;DHT22;13279;51.300;12.394;2023-02-10T09:26:14;2.90;99.90
25328;DHT22;13279;51.300;12.394;2023-02-10T09:28:42;3.00;99.90
25328;DHT22;13279;51.300;12.394;2023-02-10T09:31:12;3.00;99.90
25328;DHT22;13279;51.300;12.394;2023-02-10T09:33:43;3.00;99.90
25328;DHT22;13279;51.300;12.394;2023-02-10T09:36:14;3.00;99.90
25328;DHT22;13279;51.300;12.394;2023-02-10T09:38:44;2.90;99.90
25328;DHT22;13279;51.300;12.394;2023-02-10T09:41:23;2.90;99.90
25328;DHT22;13279;51.300;12.394;2023-02-10T09:44:09;3.00;99.90
25328;DHT22;13279;51.300;12.394;2023-02-10T09:46:46;3.00;99.90
25328;DHT22;13279;51.300;12.394;2023-02-10T09:52:16;3.10;99.90
25328;DHT22;13279;51.300;12.394;2023-02-10T09:54:45;3.10;99.90
25328;DHT22;13279;51.300;12.394;2023-02-10T09:57:15;3.20;99.90
25328;DHT22;13279;51.300;12.394;2023-02-10T09:59:44;3.20;99.90
25328;DHT22;13279;51.300;12.394;2023-02-10T10:02:18;3.30;99.90
25328;DHT22;13279;51.300;12.394;2023-02-10T10:04:50;3.40;99.90
25328;DHT22;13279;51.300;12.394;2023-02-10T10:07:23;3.40;99.90
25328;DHT22;13279;51.300;12.394;2023-02-10T10:09:59;3.50;99.90
25328;DHT22;13279;51.300;12.394;2023-02-10T10:12:36;3.60;99.90
25328;DHT22;13279;51.300;12.394;2023-02-10T10:15:07;3.70;99.90
25328;DHT22;13279;51.300;12.394;2023-02-10T10:17:49;3.80;99.90
25328;DHT22;13279;51.300;12.394;2023-02-10T10:20:31;4.10;99.90
25328;DHT22;13279;51.300;12.394;2023-02-10T10:23:15;4.10;99.90
25328;DHT22;13279;51.300;12.394;2023-02-10T10:26:00;4.20;99.90
25328;DHT22;13279;51.300;12.394;2023-02-10T10:28:38;4.00;99.90
25328;DHT22;13279;51.300;12.394;2023-02-10T10:31:13;3.90;99.90
25328;DHT22;13279;51.300;12.394;2023-02-10T10:33:47;3.80;99.90
25328;DHT22;13279;51.300;12.394;2023-02-10T10:36:19;3.90;99.90
25328;DHT22;13279;51.300;12.394;2023-02-10T10:38:51;4.00;99.90
25328;DHT22;13279;51.300;12.394;2023-02-10T10:41:22;4.10;99.90
25328;DHT22;13279;51.300;12.394;2023-02-10T10:43:56;4.20;99.90
25328;DHT22;13279;51.300;12.394;2023-02-10T10:46:27;4.40;99.90
25328;DHT22;13279;51.300;12.394;2023-02-10T10:48:55;4.30;99.90
25328;DHT22;13279;51.300;12.394;2023-02-10T10:51:25;4.30;99.90
25328;DHT22;13279;51.300;12.394;2023-02-10T10:53:55;4.30;99.90
25328;DHT22;13279;51.300;12.394;2023-02-10T10:56:30;4.30;99.90
25328;DHT22;13279;51.300;12.394;2023-02-10T10:59:06;4.40;99.90
25328;DHT22;13279;51.300;12.394;2023-02-10T11:01:40;4.60;99.90
25328;DHT22;13279;51.300;12.394;2023-02-10T11:04:12;4.70;99.90
25328;DHT22;13279;51.300;12.394;2023-02-10T11:06:43;4.60;99.90
25328;DHT22;13279;51.300;12.394;2023-02-10T11:09:22;4.70;99.90
25328;DHT22;13279;51.300;12.394;2023-02-10T11:11:50;4.80;99.90
25328;DHT22;13279;51.300;12.394;2023-02-10T11:14:21;5.00;99.90
25328;DHT22;13279;51.300;12.394;2023-02-10T11:16:52;5.00;99.90
25328;DHT22;13279;51.300;12.394;2023-02-10T11:19:22;5.00;99.90
25328;DHT22;13279;51.300;12.394;2023-02-10T11:21:52;5.10;99.90
25328;DHT22;13279;51.300;12.394;2023-02-10T11:24:22;5.10;99.90
25328;DHT22;13279;51.300;12.394;2023-02-10T11:26:55;5.20;99.90
25328;DHT22;13279;51.300;12.394;2023-02-10T11:29:27;5.30;99.90
25328;DHT22;13279;51.300;12.394;2023-02-10T11:31:55;5.30;99.90
25328;DHT22;13279;51.300;12.394;2023-02-10T11:34:28;5.20;99.90
25328;DHT22;13279;51.300;12.394;2023-02-10T11:36:59;5.10;99.90
25328;DHT22;13279;51.300;12.394;2023-02-10T11:39:38;5.20;99.90
25328;DHT22;13279;51.300;12.394;2023-02-10T11:42:10;5.20;99.90
25328;DHT22;13279;51.300;12.394;2023-02-10T11:44:38;5.10;99.90
25328;DHT22;13279;51.300;12.394;2023-02-10T11:47:13;5.00;99.90
25328;DHT22;13279;51.300;12.394;2023-02-10T11:49:43;5.00;99.90
25328;DHT22;13279;51.300;12.394;2023-02-10T11:52:12;5.10;99.90
25328;DHT22;13279;51.300;12.394;2023-02-10T11:54:41;5.10;99.90
25328;DHT22;13279;51.300;12.394;2023-02-10T11:57:21;5.20;99.90
25328;DHT22;13279;51.300;12.394;2023-02-10T12:00:17;5.30;99.90
25328;DHT22;13279;51.300;12.394;2023-02-10T12:05:52;5.70;99.90
25328;DHT22;13279;51.300;12.394;2023-02-10T12:08:29;5.60;99.90
25328;DHT22;13279;51.300;12.394;2023-02-10T12:11:04;5.50;99.90
25328;DHT22;13279;51.300;12.394;2023-02-10T12:13:41;5.70;99.90
25328;DHT22;13279;51.300;12.394;2023-02-10T12:16:20;5.70;99.90
25328;DHT22;13279;51.300;12.394;2023-02-10T12:18:57;5.80;99.90
25328;DHT22;13279;51.300;12.394;2023-02-10T12:22:00;5.80;99.90
25328;DHT22;13279;51.300;12.394;2023-02-10T12:24:51;5.80;99.90
25328;DHT22;13279;51.300;12.394;2023-02-10T12:27:30;5.90;99.90
25328;DHT22;13279;51.300;12.394;2023-02-10T12:30:05;5.90;99.90
25328;DHT22;13279;51.300;12.394;2023-02-10T12:32:45;5.70;99.90
25328;DHT22;13279;51.300;12.394;2023-02-10T12:35:25;5.60;99.90
25328;DHT22;13279;51.300;12.394;2023-02-10T12:38:03;5.50;99.90
25328;DHT22;13279;51.300;12.394;2023-02-10T12:40:50;5.30;99.90
25328;DHT22;13279;51.300;12.394;2023-02-10T12:43:47;5.30;99.90
25328;DHT22;13279;51.300;12.394;2023-02-10T12:46:24;5.40;99.90
25328;DHT22;13279;51.300;12.394;2023-02-10T12:49:10;5.50;99.90
25328;DHT22;13279;51.300;12.394;2023-02-10T12:51:48;5.60;99.90
25328;DHT22;13279;51.300;12.394;2023-02-10T12:54:19;5.60;99.90
25328;DHT22;13279;51.300;12.394;2023-02-10T12:56:52;5.60;99.90
25328;DHT22;13279;51.300;12.394;2023-02-10T12:59:24;5.80;99.90
25328;DHT22;13279;51.300;12.394;2023-02-10T13:01:56;6.00;99.90
25328;DHT22;13279;51.300;12.394;2023-02-10T13:04:32;5.90;99.90
25328;DHT22;13279;51.300;12.394;2023-02-10T13:07:11;5.90;99.90
25328;DHT22;13279;51.300;12.394;2023-02-10T13:09:42;5.90;99.90
25328;DHT22;13279;51.300;12.394;2023-02-10T13:12:18;5.90;99.90
25328;DHT22;13279;51.300;12.394;2023-02-10T13:14:53;6.00;99.90
25328;DHT22;13279;51.300;12.394;2023-02-10T13:17:22;6.30;99.90
25328;DHT22;13279;51.300;12.394;2023-02-10T13:19:55;6.20;99.90
25328;DHT22;13279;51.300;12.394;2023-02-10T13:22:49;6.50;99.90
25328;DHT22;13279;51.300;12.394;2023-02-10T13:25:23;6.90;99.90
25328;DHT22;13279;51.300;12.394;2023-02-10T13:28:06;7.10;99.90
25328;DHT22;13279;51.300;12.394;2023-02-10T13:31:04;7.10;99.90
25328;DHT22;13279;51.300;12.394;2023-02-10T13:33:41;7.20;99.90
25328;DHT22;13279;51.300;12.394;2023-02-10T13:36:15;7.50;99.90
25328;DHT22;13279;51.300;12.394;2023-02-10T13:38:46;7.80;99.90
25328;DHT22;13279;51.300;12.394;2023-02-10T13:41:25;7.90;99.90
25328;DHT22;13279;51.300;12.394;2023-02-10T13:44:18;8.00;99.90
25328;DHT22;13279;51.300;12.394;2023-02-10T13:46:50;7.90;99.90
25328;DHT22;13279;51.300;12.394;2023-02-10T13:49:27;7.70;99.90
25328;DHT22;13279;51.300;12.394;2023-02-10T13:52:16;7.40;99.90
25328;DHT22;13279;51.300;12.394;2023-02-10T13:57:53;6.90;99.90
25328;DHT22;13279;51.300;12.394;2023-02-10T14:00:27;6.70;99.90
25328;DHT22;13279;51.300;12.394;2023-02-10T14:03:18;6.70;99.90
25328;DHT22;13279;51.300;12.394;2023-02-10T14:05:52;6.50;99.90
25328;DHT22;13279;51.300;12.394;2023-02-10T14:08:29;6.20;99.90
25328;DHT22;13279;51.300;12.394;2023-02-10T14:11:04;6.20;99.90
25328;DHT22;13279;51.300;12.394;2023-02-10T14:13:32;6.20;99.90
25328;DHT22;13279;51.300;12.394;2023-02-10T14:16:06;6.20;99.90
25328;DHT22;13279;51.300;12.394;2023-02-10T14:18:36;6.10;99.90
25328;DHT22;13279;51.300;12.394;2023-02-10T14:21:10;6.20;99.90
25328;DHT22;13279;51.300;12.394;2023-02-10T14:23:41;6.20;99.90
25328;DHT22;13279;51.300;12.394;2023-02-10T14:30:18;6.10;99.90
25328;DHT22;13279;51.300;12.394;2023-02-10T14:32:49;6.00;99.90
25328;DHT22;13279;51.300;12.394;2023-02-10T14:35:31;6.10;99.90
25328;DHT22;13279;51.300;12.394;2023-02-10T14:38:24;6.40;99.90
25328;DHT22;13279;51.300;12.394;2023-02-10T14:40:55;7.20;99.90
25328;DHT22;13279;51.300;12.394;2023-02-10T14:43:25;7.70;99.90
25328;DHT22;13279;51.300;12.394;2023-02-10T14:45:58;8.20;99.90
25328;DHT22;13279;51.300;12.394;2023-02-10T14:48:30;8.30;99.90
25328;DHT22;13279;51.300;12.394;2023-02-10T14:51:04;8.40;99.90
25328;DHT22;13279;51.300;12.394;2023-02-10T14:53:36;8.30;99.90
25328;DHT22;13279;51.300;12.394;2023-02-10T14:56:18;8.00;99.90
25328;DHT22;13279;51.300;12.394;2023-02-10T14:58:46;8.10;99.90
25328;DHT22;13279;51.300;12.394;2023-02-10T15:01:28;7.80;99.90
25328;DHT22;13279;51.300;12.394;2023-02-10T15:04:04;7.20;99.90
25328;DHT22;13279;51.300;12.394;2023-02-10T15:06:54;6.90;99.90
25328;DHT22;13279;51.300;12.394;2023-02-10T15:09:31;6.80;99.90
25328;DHT22;13279;51.300;12.394;2023-02-10T15:12:05;6.50;99.90
25328;DHT22;13279;51.300;12.394;2023-02-10T15:14:46;6.50;99.90
25328;DHT22;13279;51.300;12.394;2023-02-10T15:17:18;6.40;99.90
25328;DHT22;13279;51.300;12.394;2023-02-10T15:19:58;6.30;99.90
25328;DHT22;13279;51.300;12.394;2023-02-10T15:22:34;6.20;99.90
25328;DHT22;13279;51.300;12.394;2023-02-10T15:25:30;6.10;99.90
25328;DHT22;13279;51.300;12.394;2023-02-10T15:28:24;6.00;99.90
25328;DHT22;13279;51.300;12.394;2023-02-10T15:31:00;5.90;99.90
25328;DHT22;13279;51.300;12.394;2023-02-10T15:33:37;5.80;99.90
25328;DHT22;13279;51.300;12.394;2023-02-10T15:36:33;5.60;99.90
25328;DHT22;13279;51.300;12.394;2023-02-10T15:39:20;5.50;99.90
25328;DHT22;13279;51.300;12.394;2023-02-10T15:42:22;5.30;99.90
25328;DHT22;13279;51.300;12.394;2023-02-10T15:45:01;5.30;99.90
25328;DHT22;13279;51.300;12.394;2023-02-10T15:47:45;5.20;99.90
25328;DHT22;13279;51.300;12.394;2023-02-10T15:50:18;5.10;99.90
25328;DHT22;13279;51.300;12.394;2023-02-10T15:52:48;5.10;99.90
25328;DHT22;13279;51.300;12.394;2023-02-10T15:55:20;5.00;99.90
25328;DHT22;13279;51.300;12.394;2023-02-10T15:57:48;5.00;99.90
25328;DHT22;13279;51.300;12.394;2023-02-10T16:00:22;4.90;99.90
25328;DHT22;13279;51.300;12.394;2023-02-10T16:02:50;4.80;99.90
25328;DHT22;13279;51.300;12.394;2023-02-10T16:05:18;4.80;99.90
25328;DHT22;13279;51.300;12.394;2023-02-10T16:07:47;4.70;99.90
25328;DHT22;13279;51.300;12.394;2023-02-10T16:10:18;4.70;99.90
25328;DHT22;13279;51.300;12.394;2023-02-10T16:12:47;4.60;99.90
25328;DHT22;13279;51.300;12.394;2023-02-10T16:15:17;4.60;99.90
25328;DHT22;13279;51.300;12.394;2023-02-10T16:17:47;4.50;99.90
25328;DHT22;13279;51.300;12.394;2023-02-10T16:20:18;4.40;99.90
25328;DHT22;13279;51.300;12.394;2023-02-10T16:22:48;4.30;99.90
25328;DHT22;13279;51.300;12.394;2023-02-10T16:25:17;4.30;99.90
25328;DHT22;13279;51.300;12.394;2023-02-10T16:27:45;4.30;99.90